createdAt,value
2018-04-17T00:00:30.793Z,9.10
2018-04-17T00:01:30.679Z,9.50
2018-04-17T00:02:30.700Z,9.90
2018-04-17T00:03:30.630Z,9.20
2018-04-17T00:04:30.717Z,10.60
2018-04-17T00:05:30.584Z,9.50
2018-04-17T00:06:30.561Z,9.80
2018-04-17T00:07:30.634Z,9.60
2018-04-17T00:08:30.510Z,9.80
2018-04-17T00:09:30.541Z,10.20
2018-04-17T00:10:30.465Z,9.60
2018-04-17T00:11:30.439Z,10.10
2018-04-17T00:12:30.413Z,10.10
2018-04-17T00:13:30.468Z,10.30
2018-04-17T00:14:30.367Z,10.10
2018-04-17T00:15:30.369Z,9.90
2018-04-17T00:16:30.317Z,9.50
2018-04-17T00:17:30.381Z,9.20
2018-04-17T00:18:30.268Z,9.20
2018-04-17T00:19:30.292Z,10.00
2018-04-17T00:20:30.224Z,9.50
2018-04-17T00:21:30.302Z,9.20
2018-04-17T00:22:30.173Z,10.20
2018-04-17T00:23:30.213Z,9.40
2018-04-17T00:24:30.130Z,8.90
2018-04-17T00:25:30.121Z,9.10
2018-04-17T00:26:30.076Z,9.60
2018-04-17T00:27:30.135Z,9.70
2018-04-17T00:28:30.029Z,9.40
2018-04-17T00:29:30.045Z,8.80
2018-04-17T00:30:29.979Z,9.70
2018-04-17T00:31:30.059Z,8.80
2018-04-17T00:32:29.928Z,10.20
2018-04-17T00:33:29.963Z,9.70
2018-04-17T00:34:29.885Z,9.30
2018-04-17T00:35:29.876Z,9.10
2018-04-17T00:36:29.831Z,9.00
2018-04-17T00:37:29.888Z,9.20
2018-04-17T00:38:29.785Z,8.40
2018-04-17T00:39:29.799Z,9.70
2018-04-17T00:40:29.740Z,9.30
2018-04-17T00:41:29.712Z,9.40
2018-04-17T00:42:29.686Z,9.40
2018-04-17T00:43:29.665Z,9.50
2018-04-17T00:44:29.641Z,9.40
2018-04-17T00:45:29.629Z,9.50
2018-04-17T00:46:29.594Z,9.40
2018-04-17T00:47:29.646Z,9.30
2018-04-17T00:48:29.542Z,9.60
2018-04-17T00:49:29.559Z,9.40
2018-04-17T00:50:29.495Z,10.20
2018-04-17T00:51:29.471Z,9.50
2018-04-17T00:52:29.468Z,9.80
2018-04-17T00:53:29.421Z,10.00
2018-04-17T00:54:29.485Z,9.80
2018-04-17T00:55:29.374Z,9.60
2018-04-17T00:56:29.348Z,9.30
2018-04-17T00:57:29.324Z,9.50
2018-04-17T00:58:29.299Z,8.90
2018-04-17T00:59:29.275Z,8.70
2018-04-17T01:00:29.318Z,8.80
2018-04-17T01:01:29.324Z,9.40
2018-04-17T01:02:29.201Z,9.80
2018-04-17T01:03:29.176Z,9.50
2018-04-17T01:04:29.153Z,10.30
2018-04-17T01:05:29.141Z,9.40
2018-04-17T01:06:29.104Z,8.80
2018-04-17T01:07:29.159Z,8.80
2018-04-17T01:08:29.054Z,9.40
2018-04-17T01:09:29.066Z,8.90
2018-04-17T01:10:29.008Z,9.50
2018-04-17T01:11:29.079Z,9.20
2018-04-17T01:12:28.957Z,10.10
2018-04-17T01:13:28.933Z,9.80
2018-04-17T01:14:28.911Z,9.20
2018-04-17T01:15:28.900Z,9.20
2018-04-17T01:16:28.905Z,8.90
2018-04-17T01:17:28.833Z,9.20
2018-04-17T01:18:28.810Z,9.40
2018-04-17T01:19:28.783Z,10.10
2018-04-17T01:20:28.830Z,10.10
2018-04-17T01:21:28.739Z,10.10
2018-04-17T01:22:28.737Z,9.60
2018-04-17T01:23:28.690Z,9.60
2018-04-17T01:24:28.750Z,9.20
2018-04-17T01:25:28.637Z,10.30
2018-04-17T01:26:28.613Z,10.10
2018-04-17T01:27:28.667Z,10.10
2018-04-17T01:28:28.567Z,9.70
2018-04-17T01:29:28.577Z,10.90
2018-04-17T01:30:28.516Z,9.40
2018-04-17T01:31:28.489Z,10.00
2018-04-17T01:32:28.493Z,9.70
2018-04-17T01:33:28.439Z,10.40
2018-04-17T01:34:28.507Z,9.70
2018-04-17T01:35:28.390Z,9.30
2018-04-17T01:36:28.419Z,10.70
2018-04-17T01:37:28.337Z,10.00
2018-04-17T01:38:28.437Z,10.40
2018-04-17T01:39:28.290Z,9.90
2018-04-17T01:40:28.342Z,11.30
2018-04-17T01:41:28.248Z,10.20
2018-04-17T01:42:28.254Z,9.80
2018-04-17T01:43:28.194Z,10.10
2018-04-17T01:44:28.272Z,10.10
2018-04-17T01:45:28.143Z,10.00
2018-04-17T01:46:28.118Z,10.20
2018-04-17T01:47:28.094Z,10.60
2018-04-17T01:48:28.068Z,9.60
2018-04-17T01:49:28.046Z,10.80
2018-04-17T01:50:28.093Z,9.90
2018-04-17T01:51:28.011Z,10.20
2018-04-17T01:52:28.054Z,10.30
2018-04-17T01:53:27.947Z,9.60
2018-04-17T01:54:28.020Z,9.90
2018-04-17T01:55:27.896Z,10.30
2018-04-17T01:56:27.877Z,9.90
2018-04-17T01:57:27.849Z,9.60
2018-04-17T01:58:27.841Z,9.70
2018-04-17T01:59:27.799Z,9.80
2018-04-17T02:00:27.859Z,10.00
2018-04-17T02:01:27.860Z,10.00
2018-04-17T02:02:27.728Z,9.60
2018-04-17T02:03:27.703Z,10.00
2018-04-17T02:04:27.676Z,9.40
2018-04-17T02:05:27.680Z,10.00
2018-04-17T02:06:27.624Z,9.50
2018-04-17T02:07:27.691Z,10.80
2018-04-17T02:08:27.577Z,9.60
2018-04-17T02:09:27.601Z,9.70
2018-04-17T02:10:27.527Z,9.90
2018-04-17T02:11:27.614Z,10.00
2018-04-17T02:12:27.473Z,9.60
2018-04-17T02:13:27.533Z,10.60
2018-04-17T02:14:27.425Z,10.30
2018-04-17T02:15:27.434Z,10.10
2018-04-17T02:16:27.377Z,9.60
2018-04-17T02:17:27.447Z,10.60
2018-04-17T02:18:27.328Z,9.80
2018-04-17T02:19:27.357Z,10.90
2018-04-17T02:20:27.277Z,10.30
2018-04-17T02:21:27.252Z,10.80
2018-04-17T02:22:27.276Z,10.00
2018-04-17T02:23:27.200Z,10.40
2018-04-17T02:24:27.287Z,10.00
2018-04-17T02:25:27.153Z,10.80
2018-04-17T02:26:27.197Z,10.60
2018-04-17T02:27:27.100Z,10.80
2018-04-17T02:28:27.109Z,10.60
2018-04-17T02:29:27.058Z,10.50
2018-04-17T02:30:27.120Z,10.20
2018-04-17T02:31:27.033Z,11.60
2018-04-17T02:32:26.978Z,10.70
2018-04-17T02:33:27.040Z,11.20
2018-04-17T02:34:26.926Z,11.10
2018-04-17T02:35:26.945Z,10.40
2018-04-17T02:36:26.917Z,10.80
2018-04-17T02:37:26.959Z,9.80
2018-04-17T02:38:26.826Z,10.30
2018-04-17T02:39:26.871Z,10.30
2018-04-17T02:40:26.780Z,10.90
2018-04-17T02:41:26.778Z,10.40
2018-04-17T02:42:26.721Z,10.50
2018-04-17T02:43:26.790Z,10.50
2018-04-17T02:44:26.676Z,10.50
2018-04-17T02:45:26.700Z,10.90
2018-04-17T02:46:26.706Z,10.80
2018-04-17T02:47:26.601Z,11.40
2018-04-17T02:48:26.618Z,10.70
2018-04-17T02:49:26.553Z,10.10
2018-04-17T02:50:26.630Z,10.30
2018-04-17T02:51:26.533Z,11.10
2018-04-17T02:52:26.478Z,10.80
2018-04-17T02:53:26.548Z,11.90
2018-04-17T02:54:26.426Z,11.20
2018-04-17T02:55:26.458Z,10.90
2018-04-17T02:56:26.374Z,10.70
2018-04-17T02:57:26.369Z,11.20
2018-04-17T02:58:26.322Z,11.60
2018-04-17T02:59:26.382Z,11.00
2018-04-17T03:00:26.273Z,10.50
2018-04-17T03:01:26.247Z,11.30
2018-04-17T03:02:26.297Z,11.20
2018-04-17T03:03:26.195Z,10.50
2018-04-17T03:04:26.209Z,10.30
2018-04-17T03:05:26.152Z,10.30
2018-04-17T03:06:26.120Z,10.00
2018-04-17T03:07:26.094Z,11.50
2018-04-17T03:08:26.129Z,10.60
2018-04-17T03:09:26.047Z,10.60
2018-04-17T03:10:26.039Z,10.40
2018-04-17T03:11:25.994Z,10.80
2018-04-17T03:12:26.055Z,10.70
2018-04-17T03:13:25.943Z,10.10
2018-04-17T03:14:25.962Z,10.10
2018-04-17T03:15:25.890Z,10.10
2018-04-17T03:16:25.868Z,10.90
2018-04-17T03:17:25.876Z,9.50
2018-04-17T03:18:25.814Z,11.20
2018-04-17T03:19:25.887Z,11.40
2018-04-17T03:20:25.765Z,11.30
2018-04-17T03:21:25.805Z,11.60
2018-04-17T03:22:25.714Z,11.40
2018-04-17T03:23:25.708Z,10.90
2018-04-17T03:24:25.663Z,10.70
2018-04-17T03:25:25.722Z,12.80
2018-04-17T03:26:25.727Z,11.70
2018-04-17T03:27:25.591Z,11.40
2018-04-17T03:28:25.637Z,11.80
2018-04-17T03:29:25.539Z,11.40
2018-04-17T03:30:25.549Z,11.10
2018-04-17T03:31:25.486Z,11.10
2018-04-17T03:32:25.559Z,11.50
2018-04-17T03:33:25.434Z,11.90
2018-04-17T03:34:25.470Z,11.00
2018-04-17T03:35:25.380Z,11.50
2018-04-17T03:36:25.378Z,11.70
2018-04-17T03:37:25.332Z,12.40
2018-04-17T03:38:25.408Z,12.20
2018-04-17T03:39:25.278Z,10.90
2018-04-17T03:40:25.301Z,12.60
2018-04-17T03:41:25.231Z,12.10
2018-04-17T03:42:25.314Z,11.40
2018-04-17T03:43:25.186Z,11.00
2018-04-17T03:44:25.223Z,11.40
2018-04-17T03:45:25.130Z,11.70
2018-04-17T03:46:25.137Z,12.20
2018-04-17T03:47:25.079Z,11.50
2018-04-17T03:48:25.146Z,10.80
2018-04-17T03:49:25.025Z,11.20
2018-04-17T03:50:25.061Z,11.50
2018-04-17T03:51:25.060Z,10.80
2018-04-17T03:52:24.948Z,10.80
2018-04-17T03:53:24.975Z,10.80
2018-04-17T03:54:24.899Z,11.20
2018-04-17T03:55:24.983Z,11.80
2018-04-17T03:56:24.845Z,11.40
2018-04-17T03:57:24.893Z,12.50
2018-04-17T03:58:24.796Z,11.90
2018-04-17T03:59:24.806Z,12.10
2018-04-17T04:00:24.745Z,13.20
2018-04-17T04:01:24.723Z,11.50
2018-04-17T04:02:24.696Z,12.90
2018-04-17T04:03:24.724Z,12.30
2018-04-17T04:04:24.641Z,11.70
2018-04-17T04:05:24.636Z,11.60
2018-04-17T04:06:24.591Z,12.90
2018-04-17T04:07:24.649Z,10.80
2018-04-17T04:08:24.538Z,11.20
2018-04-17T04:09:24.558Z,12.20
2018-04-17T04:10:24.488Z,11.70
2018-04-17T04:11:24.462Z,12.00
2018-04-17T04:12:24.435Z,11.60
2018-04-17T04:13:24.482Z,12.40
2018-04-17T04:14:24.385Z,11.80
2018-04-17T04:15:24.391Z,12.80
2018-04-17T04:16:24.336Z,11.50
2018-04-17T04:17:24.408Z,11.90
2018-04-17T04:18:24.283Z,11.90
2018-04-17T04:19:24.313Z,11.70
2018-04-17T04:20:24.232Z,12.70
2018-04-17T04:21:24.207Z,12.50
2018-04-17T04:22:24.229Z,11.70
2018-04-17T04:23:24.158Z,11.70
2018-04-17T04:24:24.242Z,11.60
2018-04-17T04:25:24.107Z,13.00
2018-04-17T04:26:24.152Z,12.30
2018-04-17T04:27:24.056Z,11.90
2018-04-17T04:28:24.060Z,11.90
2018-04-17T04:29:24.000Z,12.80
2018-04-17T04:30:24.079Z,12.20
2018-04-17T04:31:23.948Z,12.70
2018-04-17T04:32:23.986Z,12.00
2018-04-17T04:33:23.897Z,12.50
2018-04-17T04:34:23.895Z,11.70
2018-04-17T04:35:23.847Z,12.10
2018-04-17T04:36:23.819Z,11.90
2018-04-17T04:37:23.794Z,11.70
2018-04-17T04:38:23.818Z,12.30
2018-04-17T04:39:23.743Z,11.90
2018-04-17T04:40:23.833Z,11.80
2018-04-17T04:41:23.694Z,11.80
2018-04-17T04:42:23.747Z,11.90
2018-04-17T04:43:23.640Z,11.70
2018-04-17T04:44:23.654Z,11.90
2018-04-17T04:45:23.590Z,11.30
2018-04-17T04:46:23.566Z,12.60
2018-04-17T04:47:23.562Z,12.20
2018-04-17T04:48:23.513Z,13.70
2018-04-17T04:49:23.585Z,12.30
2018-04-17T04:50:23.461Z,11.90
2018-04-17T04:51:23.434Z,11.80
2018-04-17T04:52:23.497Z,11.90
2018-04-17T04:53:23.384Z,12.90
2018-04-17T04:54:23.356Z,12.70
2018-04-17T04:55:23.413Z,11.30
2018-04-17T04:56:23.315Z,13.20
2018-04-17T04:57:23.325Z,12.60
2018-04-17T04:58:23.255Z,13.10
2018-04-17T04:59:23.336Z,13.20
2018-04-17T05:00:23.205Z,12.70
2018-04-17T05:01:23.246Z,13.20
2018-04-17T05:02:23.155Z,13.20
2018-04-17T05:03:23.156Z,13.60
2018-04-17T05:04:23.101Z,12.80
2018-04-17T05:05:23.168Z,12.30
2018-04-17T05:06:23.053Z,12.50
2018-04-17T05:07:23.080Z,12.60
2018-04-17T05:08:23.000Z,12.40
2018-04-17T05:09:22.988Z,12.50
2018-04-17T05:10:22.950Z,12.30
2018-04-17T05:11:22.920Z,12.60
2018-04-17T05:12:22.894Z,12.70
2018-04-17T05:13:22.913Z,13.00
2018-04-17T05:14:22.842Z,13.30
2018-04-17T05:15:22.924Z,13.30
2018-04-17T05:16:22.790Z,12.80
2018-04-17T05:17:22.835Z,12.50
2018-04-17T05:18:22.739Z,13.60
2018-04-17T05:19:22.743Z,13.20
2018-04-17T05:20:22.688Z,11.90
2018-04-17T05:21:22.664Z,13.10
2018-04-17T05:22:22.639Z,12.20
2018-04-17T05:23:22.666Z,12.60
2018-04-17T05:24:22.587Z,13.70
2018-04-17T05:25:22.579Z,12.30
2018-04-17T05:26:22.583Z,13.30
2018-04-17T05:27:22.511Z,13.20
2018-04-17T05:28:22.600Z,14.20
2018-04-17T05:29:22.456Z,14.20
2018-04-17T05:30:22.507Z,14.00
2018-04-17T05:31:22.512Z,13.80
2018-04-17T05:32:22.380Z,13.50
2018-04-17T05:33:22.423Z,13.90
2018-04-17T05:34:22.328Z,16.20
2018-04-17T05:35:22.335Z,13.70
2018-04-17T05:36:22.338Z,15.60
2018-04-17T05:37:22.250Z,14.30
2018-04-17T05:38:22.248Z,13.00
2018-04-17T05:39:22.196Z,13.70
2018-04-17T05:40:22.260Z,13.40
2018-04-17T05:41:22.165Z,13.30
2018-04-17T05:42:22.173Z,13.50
2018-04-17T05:43:22.097Z,15.30
2018-04-17T05:44:22.183Z,14.90
2018-04-17T05:45:22.046Z,15.40
2018-04-17T05:46:22.094Z,15.00
2018-04-17T05:47:21.993Z,13.70
2018-04-17T05:48:22.004Z,14.20
2018-04-17T05:49:21.947Z,15.40
2018-04-17T05:50:22.018Z,13.50
2018-04-17T05:51:21.890Z,14.00
2018-04-17T05:52:21.937Z,14.50
2018-04-17T05:53:21.839Z,15.60
2018-04-17T05:54:21.838Z,16.20
2018-04-17T05:55:21.787Z,17.60
2018-04-17T05:56:21.850Z,15.80
2018-04-17T05:57:21.736Z,16.30
2018-04-17T05:58:21.761Z,17.60
2018-04-17T05:59:21.689Z,16.30
2018-04-17T06:00:21.774Z,16.20
2018-04-17T06:01:21.635Z,17.30
2018-04-17T06:02:21.685Z,19.00
2018-04-17T06:03:21.587Z,17.90
2018-04-17T06:04:21.596Z,16.80
2018-04-17T06:05:21.538Z,18.60
2018-04-17T06:06:21.612Z,19.30
2018-04-17T06:07:21.493Z,18.40
2018-04-17T06:08:21.518Z,21.20
2018-04-17T06:09:21.433Z,21.70
2018-04-17T06:10:21.428Z,24.20
2018-04-17T06:11:21.383Z,22.30
2018-04-17T06:12:21.443Z,23.40
2018-04-17T06:13:21.343Z,21.20
2018-04-17T06:14:21.353Z,22.80
2018-04-17T06:15:21.278Z,24.00
2018-04-17T06:16:21.252Z,24.60
2018-04-17T06:17:21.228Z,24.40
2018-04-17T06:18:21.271Z,27.20
2018-04-17T06:19:21.179Z,25.30
2018-04-17T06:20:21.184Z,25.60
2018-04-17T06:21:21.129Z,26.10
2018-04-17T06:22:21.195Z,26.40
2018-04-17T06:23:21.119Z,25.60
2018-04-17T06:24:21.104Z,26.90
2018-04-17T06:25:21.029Z,24.90
2018-04-17T06:26:21.005Z,25.80
2018-04-17T06:27:20.980Z,25.80
2018-04-17T06:28:21.023Z,25.60
2018-04-17T06:29:20.931Z,26.20
2018-04-17T06:30:20.936Z,25.70
2018-04-17T06:31:20.881Z,25.30
2018-04-17T06:32:20.947Z,25.90
2018-04-17T06:33:20.828Z,24.90
2018-04-17T06:34:20.858Z,27.10
2018-04-17T06:35:20.780Z,26.00
2018-04-17T06:36:20.755Z,26.80
2018-04-17T06:37:20.727Z,26.20
2018-04-17T06:38:20.781Z,26.50
2018-04-17T06:39:20.679Z,26.30
2018-04-17T06:40:20.691Z,25.70
2018-04-17T06:41:20.669Z,26.00
2018-04-17T06:42:20.703Z,26.40
2018-04-17T06:43:20.577Z,26.20
2018-04-17T06:44:20.614Z,26.90
2018-04-17T06:45:20.532Z,26.30
2018-04-17T06:46:20.641Z,25.80
2018-04-17T06:47:20.495Z,25.70
2018-04-17T06:48:20.540Z,26.00
2018-04-17T06:49:20.433Z,27.10
2018-04-17T06:50:20.450Z,27.00
2018-04-17T06:51:20.387Z,26.90
2018-04-17T06:52:20.458Z,25.80
2018-04-17T06:53:20.335Z,27.90
2018-04-17T06:54:20.316Z,28.20
2018-04-17T06:55:20.374Z,28.30
2018-04-17T06:56:20.261Z,27.20
2018-04-17T06:57:20.287Z,28.20
2018-04-17T06:58:20.217Z,28.30
2018-04-17T06:59:20.296Z,27.80
2018-04-17T07:00:20.162Z,28.20
2018-04-17T07:01:20.208Z,27.30
2018-04-17T07:02:20.115Z,28.90
2018-04-17T07:03:20.168Z,29.90
2018-04-17T07:04:20.069Z,29.70
2018-04-17T07:05:20.157Z,29.00
2018-04-17T07:06:20.021Z,29.50
2018-04-17T07:07:20.041Z,28.90
2018-04-17T07:08:19.972Z,30.20
2018-04-17T07:09:20.053Z,28.90
2018-04-17T07:10:19.921Z,29.70
2018-04-17T07:11:19.961Z,30.00
2018-04-17T07:12:19.875Z,30.20
2018-04-17T07:13:19.863Z,29.50
2018-04-17T07:14:19.828Z,29.40
2018-04-17T07:15:19.883Z,29.70
2018-04-17T07:16:19.891Z,30.90
2018-04-17T07:17:19.754Z,29.50
2018-04-17T07:18:19.803Z,30.70
2018-04-17T07:19:19.706Z,29.70
2018-04-17T07:20:19.711Z,28.90
2018-04-17T07:21:19.661Z,29.60
2018-04-17T07:22:19.724Z,28.80
2018-04-17T07:23:19.610Z,29.10
2018-04-17T07:24:19.594Z,29.70
2018-04-17T07:25:19.644Z,30.10
2018-04-17T07:26:19.541Z,30.00
2018-04-17T07:27:19.551Z,30.50
2018-04-17T07:28:19.493Z,30.40
2018-04-17T07:29:19.468Z,30.80
2018-04-17T07:30:19.474Z,30.60
2018-04-17T07:31:19.424Z,29.60
2018-04-17T07:32:19.481Z,29.10
2018-04-17T07:33:19.375Z,31.10
2018-04-17T07:34:19.356Z,29.10
2018-04-17T07:35:19.395Z,29.90
2018-04-17T07:36:19.402Z,29.40
2018-04-17T07:37:19.284Z,29.10
2018-04-17T07:38:19.312Z,28.40
2018-04-17T07:39:19.232Z,28.60
2018-04-17T07:40:19.233Z,29.40
2018-04-17T07:41:19.231Z,29.70
2018-04-17T07:42:19.163Z,27.50
2018-04-17T07:43:19.244Z,28.80
2018-04-17T07:44:19.116Z,28.00
2018-04-17T07:45:19.157Z,29.30
2018-04-17T07:46:19.070Z,28.00
2018-04-17T07:47:19.068Z,28.00
2018-04-17T07:48:19.024Z,27.60
2018-04-17T07:49:19.002Z,27.30
2018-04-17T07:50:19.085Z,26.80
2018-04-17T07:51:18.986Z,27.40
2018-04-17T07:52:18.930Z,27.70
2018-04-17T07:53:19.004Z,26.00
2018-04-17T07:54:18.885Z,26.70
2018-04-17T07:55:18.912Z,26.00
2018-04-17T07:56:18.835Z,26.10
2018-04-17T07:57:18.921Z,25.40
2018-04-17T07:58:18.793Z,25.60
2018-04-17T07:59:18.828Z,27.00
2018-04-17T08:00:18.746Z,25.00
2018-04-17T08:01:18.722Z,25.00
2018-04-17T08:02:18.701Z,24.10
2018-04-17T08:03:18.781Z,24.00
2018-04-17T08:04:18.653Z,24.10
2018-04-17T08:05:18.664Z,23.70
2018-04-17T08:06:18.613Z,23.60
2018-04-17T08:07:18.675Z,23.20
2018-04-17T08:08:18.569Z,22.70
2018-04-17T08:09:18.546Z,22.50
2018-04-17T08:10:18.590Z,23.30
2018-04-17T08:11:18.604Z,22.60
2018-04-17T08:12:18.475Z,22.90
2018-04-17T08:13:18.505Z,23.20
2018-04-17T08:14:18.431Z,22.20
2018-04-17T08:15:18.516Z,21.80
2018-04-17T08:16:18.384Z,22.00
2018-04-17T08:17:18.430Z,22.10
2018-04-17T08:18:18.343Z,22.30
2018-04-17T08:19:18.319Z,22.10
2018-04-17T08:20:18.347Z,21.90
2018-04-17T08:21:18.278Z,22.50
2018-04-17T08:22:18.357Z,22.90
2018-04-17T08:23:18.228Z,22.50
2018-04-17T08:24:18.209Z,23.60
2018-04-17T08:25:18.276Z,22.70
2018-04-17T08:26:18.162Z,22.40
2018-04-17T08:27:18.185Z,22.40
2018-04-17T08:28:18.117Z,21.80
2018-04-17T08:29:18.196Z,21.90
2018-04-17T08:30:18.086Z,21.40
2018-04-17T08:31:18.053Z,22.50
2018-04-17T08:32:18.030Z,22.40
2018-04-17T08:33:18.119Z,21.80
2018-04-17T08:34:17.987Z,23.20
2018-04-17T08:35:18.030Z,22.40
2018-04-17T08:36:17.944Z,21.80
2018-04-17T08:37:17.939Z,22.40
2018-04-17T08:38:17.903Z,20.90
2018-04-17T08:39:17.956Z,22.00
2018-04-17T08:40:17.858Z,22.00
2018-04-17T08:41:17.862Z,21.40
2018-04-17T08:42:17.817Z,21.50
2018-04-17T08:43:17.875Z,20.40
2018-04-17T08:44:17.773Z,20.80
2018-04-17T08:45:17.784Z,20.70
2018-04-17T08:46:17.728Z,21.20
2018-04-17T08:47:17.809Z,22.00
2018-04-17T08:48:17.688Z,22.50
2018-04-17T08:49:17.667Z,21.50
2018-04-17T08:50:17.716Z,20.50
2018-04-17T08:51:17.723Z,20.20
2018-04-17T08:52:17.604Z,20.20
2018-04-17T08:53:17.631Z,20.50
2018-04-17T08:54:17.562Z,20.20
2018-04-17T08:55:17.645Z,20.60
2018-04-17T08:56:17.548Z,20.90
2018-04-17T08:57:17.499Z,20.70
2018-04-17T08:58:17.566Z,20.00
2018-04-17T08:59:17.450Z,19.90
2018-04-17T09:00:17.473Z,19.20
2018-04-17T09:01:17.480Z,19.20
2018-04-17T09:02:17.394Z,19.80
2018-04-17T09:03:17.389Z,20.00
2018-04-17T09:04:17.348Z,20.30
2018-04-17T09:05:17.461Z,20.60
2018-04-17T09:06:17.306Z,20.30
2018-04-17T09:07:17.313Z,20.10
2018-04-17T09:08:17.270Z,20.00
2018-04-17T09:09:17.242Z,20.00
2018-04-17T09:10:17.334Z,19.10
2018-04-17T09:11:17.237Z,19.20
2018-04-17T09:12:17.183Z,19.10
2018-04-17T09:13:17.243Z,18.60
2018-04-17T09:14:17.142Z,15.00
2018-04-17T09:15:17.155Z,15.00
2018-04-17T09:16:17.098Z,14.00
2018-04-17T09:17:17.163Z,11.40
2018-04-17T09:18:17.059Z,11.30
2018-04-17T09:19:17.038Z,12.40
2018-04-17T09:20:17.080Z,12.10
2018-04-17T09:21:16.999Z,11.60
2018-04-17T09:22:16.991Z,11.30
2018-04-17T09:23:16.958Z,12.30
2018-04-17T09:24:17.005Z,13.60
2018-04-17T09:25:16.925Z,13.30
2018-04-17T09:26:16.896Z,12.40
2018-04-17T09:27:16.892Z,12.60
2018-04-17T09:28:16.925Z,13.20
2018-04-17T09:29:16.859Z,12.80
2018-04-17T09:30:16.838Z,13.00
2018-04-17T09:31:16.795Z,13.00
2018-04-17T09:32:16.849Z,13.70
2018-04-17T09:33:16.789Z,11.50
2018-04-17T09:34:16.738Z,11.50
2018-04-17T09:35:16.766Z,11.50
2018-04-17T09:36:16.772Z,11.30
2018-04-17T09:37:16.679Z,10.50
2018-04-17T09:38:16.685Z,11.30
2018-04-17T09:39:16.641Z,10.10
2018-04-17T09:40:16.696Z,9.90
2018-04-17T09:41:16.704Z,9.90
2018-04-17T09:42:16.586Z,10.40
2018-04-17T09:43:16.612Z,8.50
2018-04-17T09:44:16.553Z,9.20
2018-04-17T09:45:16.624Z,9.40
2018-04-17T09:46:16.528Z,10.40
2018-04-17T09:47:16.486Z,10.30
2018-04-17T09:48:16.540Z,10.40
2018-04-17T09:49:16.444Z,9.80
2018-04-17T09:50:16.555Z,10.10
2018-04-17T09:51:16.462Z,11.10
2018-04-17T09:52:16.399Z,11.30
2018-04-17T09:53:16.472Z,11.10
2018-04-17T09:54:16.357Z,10.20
2018-04-17T09:55:16.382Z,10.30
2018-04-17T09:56:16.389Z,9.90
2018-04-17T09:57:16.307Z,9.50
2018-04-17T09:58:16.404Z,6.70
2018-04-17T09:59:16.266Z,5.80
2018-04-17T10:00:16.304Z,5.90
2018-04-17T10:01:16.243Z,8.90
2018-04-17T10:02:16.322Z,8.80
2018-04-17T10:03:16.210Z,7.10
2018-04-17T10:04:16.224Z,6.80
2018-04-17T10:05:16.238Z,6.10
2018-04-17T10:06:16.138Z,5.30
2018-04-17T10:07:16.148Z,5.30
2018-04-17T10:08:16.102Z,6.80
2018-04-17T10:09:16.089Z,8.20
2018-04-17T10:10:16.066Z,9.10
2018-04-17T10:11:16.072Z,8.80
2018-04-17T10:12:16.034Z,7.20
2018-04-17T10:13:16.079Z,6.00
2018-04-17T10:14:15.999Z,5.80
2018-04-17T10:15:15.990Z,5.90
2018-04-17T10:16:15.958Z,6.50
2018-04-17T10:17:16.029Z,6.30
2018-04-17T10:18:15.926Z,6.70
2018-04-17T10:19:16.017Z,7.90
2018-04-17T10:20:15.888Z,7.70
2018-04-17T10:21:15.930Z,8.70
2018-04-17T10:22:15.855Z,8.60
2018-04-17T10:23:15.937Z,9.20
2018-04-17T10:24:15.821Z,8.30
2018-04-17T10:25:15.848Z,8.00
2018-04-17T10:26:15.785Z,9.00
2018-04-17T10:27:15.859Z,8.40
2018-04-17T10:28:15.756Z,8.50
2018-04-17T10:29:15.772Z,8.20
2018-04-17T10:30:15.720Z,8.20
2018-04-17T10:31:15.782Z,7.90
2018-04-17T10:32:15.687Z,8.00
2018-04-17T10:33:15.693Z,8.20
2018-04-17T10:34:15.677Z,8.50
2018-04-17T10:35:15.705Z,8.60
2018-04-17T10:36:15.612Z,8.90
2018-04-17T10:37:15.618Z,9.20
2018-04-17T10:38:15.581Z,9.00
2018-04-17T10:39:15.632Z,9.80
2018-04-17T10:40:15.555Z,9.80
2018-04-17T10:41:15.646Z,9.00
2018-04-17T10:42:15.515Z,8.40
2018-04-17T10:43:15.557Z,8.20
2018-04-17T10:44:15.482Z,8.30
2018-04-17T10:45:15.571Z,9.10
2018-04-17T10:46:15.451Z,8.00
2018-04-17T10:47:15.476Z,7.90
2018-04-17T10:48:15.416Z,8.00
2018-04-17T10:49:15.482Z,8.40
2018-04-17T10:50:15.386Z,7.30
2018-04-17T10:51:15.402Z,7.70
2018-04-17T10:52:15.350Z,7.90
2018-04-17T10:53:15.410Z,8.90
2018-04-17T10:54:15.324Z,8.10
2018-04-17T10:55:15.323Z,8.10
2018-04-17T10:56:15.288Z,8.10
2018-04-17T10:57:16.362Z,8.10
2018-04-17T10:58:15.254Z,7.80
2018-04-17T10:59:15.344Z,8.30
2018-04-17T11:00:15.228Z,8.30
2018-04-17T11:01:15.256Z,8.60
2018-04-17T11:02:15.194Z,8.70
2018-04-17T11:03:15.286Z,8.80
2018-04-17T11:04:15.161Z,8.50
2018-04-17T11:05:15.177Z,8.20
2018-04-17T11:06:15.134Z,8.70
2018-04-17T11:07:15.188Z,8.40
2018-04-17T11:08:15.102Z,8.00
2018-04-17T11:09:15.103Z,8.10
2018-04-17T11:10:15.078Z,8.70
2018-04-17T11:11:15.112Z,8.50
2018-04-17T11:12:15.041Z,8.30
2018-04-17T11:13:15.136Z,8.10
2018-04-17T11:14:14.999Z,7.90
2018-04-17T11:15:15.038Z,8.00
2018-04-17T11:16:14.990Z,7.90
2018-04-17T11:17:15.046Z,7.40
2018-04-17T11:18:14.946Z,7.70
2018-04-17T11:19:14.958Z,8.30
2018-04-17T11:20:14.915Z,9.70
2018-04-17T11:21:14.969Z,8.60
2018-04-17T11:22:14.887Z,8.10
2018-04-17T11:23:15.005Z,8.80
2018-04-17T11:24:14.854Z,9.20
2018-04-17T11:25:14.892Z,9.10
2018-04-17T11:26:14.831Z,9.90
2018-04-17T11:27:14.906Z,9.40
2018-04-17T11:28:14.785Z,9.30
2018-04-17T11:29:14.816Z,8.20
2018-04-17T11:30:14.762Z,8.20
2018-04-17T11:31:14.829Z,7.90
2018-04-17T11:32:14.734Z,9.60
2018-04-17T11:33:14.738Z,9.30
2018-04-17T11:34:14.699Z,9.40
2018-04-17T11:35:14.752Z,9.10
2018-04-17T11:36:14.677Z,9.20
2018-04-17T11:37:14.767Z,9.40
2018-04-17T11:38:14.649Z,9.20
2018-04-17T11:39:14.677Z,10.50
2018-04-17T11:40:14.616Z,10.40
2018-04-17T11:41:14.686Z,10.50
2018-04-17T11:42:14.591Z,10.20
2018-04-17T11:43:14.595Z,10.30
2018-04-17T11:44:14.562Z,9.60
2018-04-17T11:45:14.608Z,9.70
2018-04-17T11:46:14.531Z,9.70
2018-04-17T11:47:14.620Z,11.10
2018-04-17T11:48:14.498Z,9.90
2018-04-17T11:49:14.532Z,11.50
2018-04-17T11:50:14.467Z,10.80
2018-04-17T11:51:14.548Z,12.00
2018-04-17T11:52:14.445Z,11.40
2018-04-17T11:53:14.457Z,11.20
2018-04-17T11:54:14.412Z,11.00
2018-04-17T11:55:14.470Z,10.30
2018-04-17T11:56:14.384Z,12.10
2018-04-17T11:57:14.481Z,12.50
2018-04-17T11:58:14.348Z,12.40
2018-04-17T11:59:14.394Z,12.10
2018-04-17T12:00:14.318Z,12.40
2018-04-17T12:01:14.404Z,11.80
2018-04-17T12:02:14.293Z,12.40
2018-04-17T12:03:14.316Z,11.60
2018-04-17T12:04:14.265Z,12.30
2018-04-17T12:05:14.333Z,11.10
2018-04-17T12:06:14.234Z,11.00
2018-04-17T12:07:14.236Z,11.20
2018-04-17T12:08:14.199Z,10.90
2018-04-17T12:09:14.252Z,11.20
2018-04-17T12:10:14.175Z,10.90
2018-04-17T12:11:14.267Z,11.00
2018-04-17T12:12:14.143Z,11.10
2018-04-17T12:13:14.183Z,10.40
2018-04-17T12:14:14.115Z,10.40
2018-04-17T12:15:14.182Z,10.10
2018-04-17T12:16:14.085Z,10.40
2018-04-17T12:17:14.091Z,9.90
2018-04-17T12:18:14.064Z,11.10
2018-04-17T12:19:14.107Z,10.30
2018-04-17T12:20:14.026Z,9.80
2018-04-17T12:21:14.122Z,9.70
2018-04-17T12:22:13.996Z,9.50
2018-04-17T12:23:14.028Z,9.70
2018-04-17T12:24:13.966Z,10.10
2018-04-17T12:25:14.043Z,10.50
2018-04-17T12:26:13.938Z,10.90
2018-04-17T12:27:13.947Z,10.60
2018-04-17T12:28:13.912Z,10.40
2018-04-17T12:29:13.963Z,10.90
2018-04-17T12:30:13.883Z,10.90
2018-04-17T12:31:13.978Z,10.30
2018-04-17T12:32:13.852Z,9.70
2018-04-17T12:33:13.892Z,10.00
2018-04-17T12:34:13.826Z,10.80
2018-04-17T12:35:13.895Z,11.20
2018-04-17T12:36:13.795Z,10.80
2018-04-17T12:37:13.809Z,22.40
2018-04-17T12:38:13.771Z,14.90
2018-04-17T12:39:13.817Z,12.00
2018-04-17T12:40:13.738Z,10.90
2018-04-17T12:41:13.829Z,11.30
2018-04-17T12:42:13.713Z,11.10
2018-04-17T12:43:13.740Z,11.90
2018-04-17T12:44:13.684Z,10.70
2018-04-17T12:45:13.750Z,10.70
2018-04-17T12:46:13.654Z,11.30
2018-04-17T12:47:13.662Z,11.80
2018-04-17T12:48:13.624Z,11.40
2018-04-17T12:49:13.674Z,11.80
2018-04-17T12:50:13.600Z,11.50
2018-04-17T12:51:13.688Z,12.30
2018-04-17T12:52:13.573Z,13.80
2018-04-17T12:53:13.598Z,11.30
2018-04-17T12:54:13.560Z,11.50
2018-04-17T12:55:13.610Z,15.30
2018-04-17T12:56:13.528Z,13.70
2018-04-17T12:57:13.517Z,12.10
2018-04-17T12:58:13.486Z,15.60
2018-04-17T12:59:13.528Z,14.00